Time;durP1;ratioP1;P1;durP2;ratioP2;P2;SDS_P1;SDS_P2;PMS_P1;PMS_P2;Temp;Humidity;BMP_temperature;BMP_pressure;BME280_temperature;BME280_humidity;BME280_pressure;Samples;Min_cycle;Max_cycle;Signal;HPM_P1;HPM_P2
2023/12/22 00:02:20;;;;;;;13.33;12.13;;;;;;;21.48;30.03;93537.72;6155323;28;110219;-56
2023/12/22 00:05:23;;;;;;;13.83;12.53;;;;;;;21.49;30.35;93533.19;6139574;28;109157;-56
2023/12/22 00:08:27;;;;;;;13.07;11.87;;;;;;;21.47;30.08;93522.88;6161082;28;109158;-56
2023/12/22 00:11:30;;;;;;;12.83;11.63;;;;;;;21.48;30.33;93516.44;6151813;28;110144;-56
2023/12/22 00:14:33;;;;;;;12.07;11.03;;;;;;;21.49;30.17;93514.56;6161626;28;109155;-56
2023/12/22 00:17:36;;;;;;;13.40;12.20;;;;;;;21.48;29.91;93519.09;6148040;28;109123;-56
2023/12/22 00:20:39;;;;;;;13.83;12.57;;;;;;;21.47;30.27;93511.47;6150674;28;110137;-56
2023/12/22 00:23:43;;;;;;;13.80;12.60;;;;;;;21.47;30.19;93509.56;6151351;28;109401;-56
2023/12/22 00:26:47;;;;;;;13.50;12.20;;;;;;;21.48;29.81;93492.50;6159867;28;109141;-56
2023/12/22 00:29:50;;;;;;;13.60;12.30;;;;;;;21.48;29.94;93497.03;6152409;28;110118;-55
2023/12/22 00:32:53;;;;;;;13.77;12.47;;;;;;;21.47;29.87;93493.59;6160623;28;110557;-55
2023/12/22 00:35:56;;;;;;;14.40;13.10;;;;;;;21.48;29.75;93487.16;6151137;28;109123;-55
2023/12/22 00:39:00;;;;;;;14.70;13.30;;;;;;;21.47;30.31;93477.63;6162693;28;109081;-55
2023/12/22 00:42:04;;;;;;;14.00;12.50;;;;;;;21.47;30.29;93474.19;6159136;28;108948;-55
2023/12/22 00:45:07;;;;;;;14.47;13.07;;;;;;;21.47;29.93;93464.31;6142071;28;110431;-56
2023/12/22 00:48:10;;;;;;;13.67;12.53;;;;;;;21.46;29.89;93457.47;6156546;28;110288;-55
2023/12/22 00:51:16;;;;;;;14.83;13.47;;;;;;;21.48;30.06;93457.13;6161649;28;109136;-55
2023/12/22 00:54:20;;;;;;;14.90;13.50;;;;;;;21.47;29.76;93443.03;6154658;28;110049;-55
2023/12/22 00:57:23;;;;;;;13.97;12.77;;;;;;;21.48;30.06;93441.16;6151640;28;109604;-55
2023/12/22 01:00:26;;;;;;;14.70;13.37;;;;;;;21.46;29.82;93433.50;6161517;28;109607;-55
2023/12/22 01:03:30;;;;;;;14.60;13.40;;;;;;;21.47;30.17;93434.28;6161029;28;110149;-55
2023/12/22 01:06:33;;;;;;;15.40;13.90;;;;;;;21.46;30.25;93430.84;6161087;28;109380;-55
2023/12/22 01:09:38;;;;;;;15.03;13.73;;;;;;;21.43;30.01;93425.44;6151024;28;109108;-55
2023/12/22 01:12:41;;;;;;;13.33;12.10;;;;;;;21.45;29.74;93439.94;6160444;28;109434;-55
2023/12/22 01:15:44;;;;;;;13.93;12.70;;;;;;;21.45;29.65;93458.56;6160890;28;109041;-55
2023/12/22 01:18:47;;;;;;;14.80;13.47;;;;;;;21.44;30.20;93457.03;6161949;28;109168;-55
2023/12/22 01:21:50;;;;;;;13.53;12.33;;;;;;;21.45;29.67;93469.22;6151012;28;110289;-55
2023/12/22 01:24:56;;;;;;;13.80;12.60;;;;;;;21.45;29.84;93423.97;6160632;28;109133;-55
2023/12/22 01:27:59;;;;;;;12.57;11.37;;;;;;;21.45;30.05;93434.63;6161489;28;109434;-58
2023/12/22 01:31:05;;;;;;;13.60;12.40;;;;;;;21.44;29.78;93443.72;6151598;28;109192;-56
2023/12/22 01:34:08;;;;;;;12.80;11.50;;;;;;;21.46;29.66;93435.41;6159491;28;109153;-55
2023/12/22 01:37:11;;;;;;;13.50;12.30;;;;;;;21.44;29.57;93433.09;6160495;28;109051;-55
2023/12/22 01:40:16;;;;;;;12.63;11.53;;;;;;;21.45;30.04;93434.63;6151949;28;109108;-55
2023/12/22 01:43:21;;;;;;;11.90;10.80;;;;;;;21.45;30.01;93417.88;6148874;28;110271;-55
2023/12/22 01:46:25;;;;;;;12.97;11.87;;;;;;;21.43;30.05;93425.44;6160607;28;110177;-55
2023/12/22 01:49:29;;;;;;;12.80;11.60;;;;;;;21.44;30.02;93411.78;6159596;28;110326;-55
2023/12/22 01:52:32;;;;;;;12.13;11.07;;;;;;;21.43;30.01;93415.56;6159376;28;109121;-55
2023/12/22 01:55:37;;;;;;;12.03;11.03;;;;;;;21.42;29.58;93406.03;6150592;28;109248;-55
2023/12/22 01:58:41;;;;;;;12.07;10.97;;;;;;;21.40;29.72;93389.66;6160786;28;109109;-57
2023/12/22 02:01:45;;;;;;;12.90;11.70;;;;;;;21.40;29.54;93404.84;6145627;28;109201;-55
2023/12/22 02:04:49;;;;;;;12.60;11.33;;;;;;;21.41;30.02;93407.16;6133956;28;109807;-55
2023/12/22 02:07:52;;;;;;;13.07;11.63;;;;;;;21.41;30.15;93399.19;6144852;28;110010;-55
2023/12/22 02:10:57;;;;;;;12.23;11.13;;;;;;;21.41;29.80;93417.81;6160311;28;110056;-55
2023/12/22 02:14:00;;;;;;;12.27;11.17;;;;;;;21.41;29.61;93411.72;6160458;28;110020;-55
2023/12/22 02:17:11;;;;;;;13.40;12.10;;;;;;;21.41;30.09;93396.50;6149221;28;109497;-55
2023/12/22 02:20:14;;;;;;;13.57;12.33;;;;;;;21.41;29.76;93404.50;6145105;28;109086;-54
2023/12/22 02:23:18;;;;;;;13.10;11.90;;;;;;;21.41;29.96;93407.16;6157680;28;109870;-55
2023/12/22 02:26:28;;;;;;;12.57;11.37;;;;;;;21.40;29.54;93410.16;6149153;28;109247;-55
2023/12/22 02:29:35;;;;;;;12.47;11.27;;;;;;;21.42;29.70;93408.69;6148276;28;109214;-55
2023/12/22 02:32:42;;;;;;;11.83;10.73;;;;;;;21.42;29.94;93402.59;6157903;28;109560;-55
2023/12/22 02:35:49;;;;;;;12.60;11.50;;;;;;;21.43;29.43;93388.19;6160049;28;109652;-55
2023/12/22 02:38:55;;;;;;;12.57;11.47;;;;;;;21.42;29.76;93403.38;6156281;28;109529;-55
2023/12/22 02:41:59;;;;;;;11.30;10.30;;;;;;;21.41;29.50;93388.53;6155356;28;109970;-55
2023/12/22 02:45:02;;;;;;;12.00;10.90;;;;;;;21.40;29.52;93384.31;6164377;28;110204;-55
2023/12/22 02:48:06;;;;;;;12.80;11.60;;;;;;;21.42;30.00;93378.66;6163320;28;110212;-55
2023/12/22 02:51:09;;;;;;;11.90;10.80;;;;;;;21.43;29.79;93378.31;6152963;28;108998;-58
2023/12/22 02:54:14;;;;;;;12.60;11.20;;;;;;;21.42;29.80;93360.81;6153262;28;110273;-57
2023/12/22 02:57:17;;;;;;;13.40;11.03;;;;;;;21.42;29.66;93363.47;6158099;28;109604;-65
2023/12/22 03:00:20;;;;;;;11.60;10.60;;;;;;;21.42;29.96;93366.13;6163318;28;110071;-58
2023/12/22 03:03:23;;;;;;;11.87;10.77;;;;;;;21.37;29.72;93350.41;6150350;28;109820;-58
2023/12/22 03:06:26;;;;;;;11.60;10.57;;;;;;;21.41;29.85;93353.94;6156061;28;109217;-58
2023/12/22 03:09:31;;;;;;;11.93;10.83;;;;;;;21.41;29.96;93372.56;6162971;28;109777;-57
2023/12/22 03:12:36;;;;;;;11.63;10.53;;;;;;;21.41;29.68;93369.91;6160951;28;110158;-57
2023/12/22 03:15:39;;;;;;;11.17;10.17;;;;;;;21.40;29.83;93349.72;6157022;28;109395;-58
2023/12/22 03:18:42;;;;;;;11.23;10.13;;;;;;;21.40;29.67;93357.72;6162822;28;109156;-58
2023/12/22 03:21:45;;;;;;;11.73;10.73;;;;;;;21.49;29.74;93370.84;6163045;28;109133;-58
2023/12/22 03:24:50;;;;;;;12.60;10.40;;;;;;;21.46;29.79;93371.53;6150436;28;109047;-57
2023/12/22 03:27:53;;;;;;;11.33;10.23;;;;;;;21.44;29.48;93361.22;6157707;28;109663;-58
2023/12/22 03:30:56;;;;;;;10.27;9.33;;;;;;;21.44;29.67;93365.78;6161816;28;109078;-57
2023/12/22 03:33:59;;;;;;;11.60;10.50;;;;;;;21.43;29.93;93358.91;6167004;28;109173;-58
2023/12/22 03:37:02;;;;;;;11.03;9.80;;;;;;;21.43;29.77;93372.22;6158513;28;109342;-58
2023/12/22 03:40:09;;;;;;;10.87;9.80;;;;;;;21.44;29.84;93363.13;6163806;28;109185;-58
2023/12/22 03:43:12;;;;;;;10.60;9.60;;;;;;;21.42;29.88;93355.47;6162872;28;109175;-58
2023/12/22 03:46:15;;;;;;;10.50;9.60;;;;;;;21.41;29.91;93347.84;6161844;28;110945;-57
2023/12/22 03:49:19;;;;;;;10.60;9.50;;;;;;;21.40;30.11;93368.34;6153655;28;109511;-58
2023/12/22 03:52:22;;;;;;;11.20;10.20;;;;;;;21.41;29.76;93364.59;6161709;28;109728;-57
2023/12/22 03:55:27;;;;;;;10.23;9.33;;;;;;;21.41;29.59;93347.84;6161678;28;109237;-58
2023/12/22 03:58:30;;;;;;;10.83;9.73;;;;;;;21.39;29.87;93348.19;6152268;28;110117;-57
2023/12/22 04:01:33;;;;;;;10.73;9.73;;;;;;;21.47;29.62;93352.56;6156735;28;109646;-58
2023/12/22 04:04:38;;;;;;;9.90;9.10;;;;;;;21.55;29.53;93342.09;6162538;28;109291;-58
2023/12/22 04:07:42;;;;;;;10.17;9.17;;;;;;;21.56;29.87;93354.28;6162423;28;109134;-58
2023/12/22 04:10:46;;;;;;;10.00;9.10;;;;;;;21.52;29.56;93356.88;6151071;28;110154;-57
2023/12/22 04:13:49;;;;;;;10.60;9.60;;;;;;;21.52;30.05;93362.97;6163508;28;110049;-57
2023/12/22 04:16:53;;;;;;;10.37;9.37;;;;;;;21.59;29.87;93356.25;6161900;28;110803;-58
2023/12/22 04:19:56;;;;;;;10.70;9.70;;;;;;;21.60;29.85;93368.44;6162594;28;109110;-58
2023/12/22 04:22:59;;;;;;;10.50;9.50;;;;;;;21.59;30.00;93349.06;6151125;28;110079;-58
2023/12/22 04:26:04;;;;;;;10.53;9.10;;;;;;;21.65;29.97;93354.88;6158979;28;108705;-58
2023/12/22 04:29:07;;;;;;;11.07;9.87;;;;;;;21.62;30.30;93347.59;6151531;28;109108;-58
2023/12/22 04:32:10;;;;;;;10.53;9.43;;;;;;;21.56;30.07;93339.09;6157058;28;109424;-57
2023/12/22 04:35:13;;;;;;;10.90;9.67;;;;;;;21.54;30.25;93341.34;6151777;28;109540;-58
2023/12/22 04:38:16;;;;;;;11.43;10.33;;;;;;;21.51;30.25;93342.78;6158847;28;110061;-61
2023/12/22 04:41:21;;;;;;;14.30;9.43;;;;;;;21.57;30.02;93335.31;6162263;28;110126;-62
2023/12/22 04:44:24;;;;;;;10.40;9.40;;;;;;;21.62;30.10;93342.25;6146621;28;110204;-57
2023/12/22 04:47:27;;;;;;;11.73;10.63;;;;;;;21.61;30.92;93332.72;6158719;28;109389;-57
2023/12/22 04:50:30;;;;;;;11.33;9.40;;;;;;;21.56;30.83;93325.78;6161520;28;109018;-57
2023/12/22 04:53:33;;;;;;;11.50;10.00;;;;;;;21.53;30.73;93321.16;6161256;28;111123;-58
2023/12/22 04:56:38;;;;;;;11.97;9.90;;;;;;;21.50;30.46;93330.56;6150762;28;110912;-58
2023/12/22 04:59:41;;;;;;;11.40;10.30;;;;;;;21.49;31.14;93330.91;6159263;28;109015;-57
2023/12/22 05:02:44;;;;;;;12.83;9.80;;;;;;;21.56;30.99;93341.75;6160523;28;110155;-58
2023/12/22 05:05:47;;;;;;;14.20;11.00;;;;;;;21.55;30.72;93331.47;6162072;28;109194;-58
2023/12/22 05:08:50;;;;;;;11.30;9.73;;;;;;;21.74;31.15;93319.00;6151225;28;108994;-58
2023/12/22 05:11:54;;;;;;;10.63;9.63;;;;;;;21.84;30.87;93317.69;6159144;28;109364;-57
2023/12/22 05:14:57;;;;;;;10.20;9.10;;;;;;;21.74;30.39;93324.31;6160769;28;109056;-57
2023/12/22 05:18:00;;;;;;;10.17;9.27;;;;;;;21.71;30.74;93318.91;6155876;28;110171;-57
2023/12/22 05:21:04;;;;;;;10.30;9.30;;;;;;;21.64;30.94;93300.09;6157271;28;110073;-57
2023/12/22 05:24:07;;;;;;;11.97;10.33;;;;;;;21.69;30.90;93321.16;6161894;28;108998;-57
2023/12/22 05:27:12;;;;;;;10.73;9.00;;;;;;;21.65;30.97;93312.28;6161614;28;109273;-57
2023/12/22 05:30:15;;;;;;;11.40;9.83;;;;;;;21.63;30.80;93323.28;6150815;28;108717;-57
2023/12/22 05:33:18;;;;;;;10.83;9.37;;;;;;;21.61;30.97;93314.88;6161154;28;109327;-57
2023/12/22 05:36:22;;;;;;;14.03;9.57;;;;;;;21.57;31.09;93326.56;6162040;28;111223;-57
2023/12/22 05:39:25;;;;;;;10.60;9.60;;;;;;;21.52;30.71;93319.63;6161753;28;109064;-57
2023/12/22 05:42:29;;;;;;;11.23;10.00;;;;;;;21.52;30.88;93332.91;6151517;28;109083;-62
2023/12/22 05:45:32;;;;;;;9.73;8.73;;;;;;;21.49;31.13;93326.38;6161772;28;110365;-57
2023/12/22 05:48:36;;;;;;;10.83;9.80;;;;;;;21.47;30.89;93330.50;6160150;28;109088;-57
2023/12/22 05:51:39;;;;;;;15.53;10.20;;;;;;;21.48;30.71;93335.47;6159172;28;109379;-57
2023/12/22 05:54:42;;;;;;;10.87;9.80;;;;;;;21.47;30.80;93325.94;6154448;28;109719;-57
2023/12/22 05:57:47;;;;;;;9.37;8.57;;;;;;;21.48;30.84;93322.16;6161603;28;110074;-58
2023/12/22 06:00:50;;;;;;;12.70;10.00;;;;;;;21.47;30.72;93323.28;6161366;28;109115;-58
2023/12/22 06:03:54;;;;;;;11.03;10.03;;;;;;;21.48;30.77;93319.50;6150853;28;109022;-57
2023/12/22 06:06:58;;;;;;;10.90;9.87;;;;;;;21.48;30.84;93321.41;6161039;28;110494;-58
2023/12/22 06:10:01;;;;;;;11.50;10.50;;;;;;;21.47;30.47;93317.19;6161723;28;110132;-58
2023/12/22 06:13:06;;;;;;;11.17;10.03;;;;;;;21.47;30.26;93319.84;6160604;28;109138;-57
2023/12/22 06:16:14;;;;;;;11.13;10.03;;;;;;;21.47;30.38;93325.94;6150816;28;110163;-57
2023/12/22 06:19:17;;;;;;;11.60;10.57;;;;;;;21.47;30.43;93330.50;6159753;28;109096;-56
2023/12/22 06:22:21;;;;;;;11.13;10.13;;;;;;;21.47;30.57;93331.28;6161073;28;110084;-54
2023/12/22 06:25:24;;;;;;;11.40;10.33;;;;;;;21.47;30.44;93327.84;6160947;28;109075;-54
2023/12/22 06:28:28;;;;;;;11.47;10.47;;;;;;;21.46;30.47;93328.94;6149785;28;109123;-55
2023/12/22 06:31:31;;;;;;;10.90;9.90;;;;;;;21.45;30.45;93341.47;6160258;28;109521;-55
2023/12/22 06:34:35;;;;;;;11.30;10.20;;;;;;;21.44;30.60;93333.84;6160666;28;109264;-55
2023/12/22 06:37:38;;;;;;;11.10;10.00;;;;;;;21.45;30.34;93327.41;6155331;28;109105;-55
2023/12/22 06:40:41;;;;;;;11.50;10.40;;;;;;;21.45;30.75;93335.38;6155968;28;109067;-54
2023/12/22 06:43:46;;;;;;;10.90;9.90;;;;;;;21.44;30.54;93341.84;6160831;28;110111;-55
2023/12/22 06:46:49;;;;;;;11.60;10.50;;;;;;;21.43;30.45;93329.66;6160118;28;109269;-55
2023/12/22 06:49:52;;;;;;;11.40;10.30;;;;;;;21.42;30.40;93334.19;6151317;28;109744;-55
2023/12/22 06:52:56;;;;;;;11.07;10.00;;;;;;;21.45;30.28;93349.47;6160179;28;109125;-56
2023/12/22 06:56:00;;;;;;;11.80;10.70;;;;;;;21.45;30.63;93343.38;6160824;28;110269;-55
2023/12/22 06:59:05;;;;;;;11.57;10.57;;;;;;;21.45;30.72;93344.16;6160768;28;110404;-55
2023/12/22 07:02:08;;;;;;;11.70;10.60;;;;;;;21.43;30.53;93341.06;6150088;28;109084;-54
2023/12/22 07:05:36;;;;;;;11.00;10.00;;;;;;;21.45;30.68;93359.34;6160847;28;110316;-55
2023/12/22 07:08:40;;;;;;;11.43;10.33;;;;;;;21.45;30.60;93346.81;6160157;28;109015;-55
2023/12/22 07:11:44;;;;;;;11.53;10.47;;;;;;;21.65;30.67;93352.22;6155306;28;109315;-55
2023/12/22 07:14:49;;;;;;;11.43;10.43;;;;;;;21.57;30.35;93351.28;6156210;28;109192;-55
2023/12/22 07:17:52;;;;;;;11.50;10.40;;;;;;;21.51;30.32;93353.44;6160289;28;110110;-55
2023/12/22 07:20:55;;;;;;;11.80;10.60;;;;;;;21.50;30.75;93356.41;6159171;28;109041;-55
2023/12/22 07:23:58;;;;;;;12.00;10.87;;;;;;;21.48;30.32;93358.66;6149148;28;109113;-55
2023/12/22 07:27:03;;;;;;;12.00;10.90;;;;;;;21.46;30.30;93352.91;6159749;28;109001;-55
2023/12/22 07:30:11;;;;;;;11.77;10.70;;;;;;;21.45;30.68;93357.44;6162471;28;110212;-55
2023/12/22 07:33:14;;;;;;;12.57;11.47;;;;;;;21.44;30.54;93361.22;6163378;28;109220;-57
2023/12/22 07:36:18;;;;;;;12.50;11.40;;;;;;;21.45;30.72;93351.34;6152972;28;109040;-56
2023/12/22 07:39:23;;;;;;;13.67;12.47;;;;;;;21.45;30.61;93357.44;6163336;28;109233;-57
2023/12/22 07:42:26;;;;;;;13.40;12.20;;;;;;;21.46;30.57;93368.88;6163728;28;109098;-56
2023/12/22 07:45:32;;;;;;;13.47;12.27;;;;;;;21.45;30.83;93362.78;6159031;28;110205;-56
2023/12/22 07:48:35;;;;;;;13.40;12.20;;;;;;;21.46;30.45;93371.53;6145452;28;109165;-56
2023/12/22 07:51:38;;;;;;;13.27;12.17;;;;;;;21.45;30.59;93384.06;6139092;28;110055;-57
2023/12/22 07:54:43;;;;;;;13.63;12.40;;;;;;;21.44;30.48;93385.19;6161346;28;110187;-57
2023/12/22 07:57:47;;;;;;;13.10;12.00;;;;;;;21.45;30.44;93383.28;6153877;28;109875;-56
2023/12/22 08:00:51;;;;;;;14.20;12.90;;;;;;;21.45;30.69;93386.72;6163260;28;109419;-56
2023/12/22 08:03:55;;;;;;;14.47;13.27;;;;;;;21.45;30.54;93394.72;6163148;28;109030;-59
2023/12/22 08:06:59;;;;;;;15.40;14.00;;;;;;;21.45;30.15;93400.03;6162888;28;109042;-56
2023/12/22 08:10:02;;;;;;;14.10;12.80;;;;;;;21.45;30.39;93400.03;6153425;28;110193;-56
2023/12/22 08:13:05;;;;;;;13.17;11.97;;;;;;;21.44;30.39;93409.13;6163202;28;109536;-57
2023/12/22 08:16:10;;;;;;;14.40;13.10;;;;;;;21.45;30.24;93402.69;6162967;28;109111;-56
2023/12/22 08:19:13;;;;;;;15.23;13.83;;;;;;;21.44;30.48;93411.03;6163278;28;110084;-56
2023/12/22 08:22:17;;;;;;;15.30;13.73;;;;;;;21.43;30.05;93410.25;6152508;28;109191;-56
2023/12/22 08:25:20;;;;;;;14.20;12.70;;;;;;;21.43;30.39;93420.88;6162707;28;109055;-56
2023/12/22 08:28:24;;;;;;;14.87;13.43;;;;;;;21.43;30.14;93425.44;6162702;28;108990;-56
2023/12/22 08:31:28;;;;;;;15.00;13.70;;;;;;;21.43;30.65;93428.88;6152555;28;111651;-56
2023/12/22 08:34:31;;;;;;;14.90;13.50;;;;;;;21.45;30.64;93428.53;6161591;28;109202;-57
2023/12/22 08:37:35;;;;;;;14.63;13.33;;;;;;;21.49;30.45;93430.16;6162397;28;109093;-56
2023/12/22 08:40:38;;;;;;;15.03;13.70;;;;;;;21.52;30.49;93432.16;6162043;28;109122;-56
2023/12/22 08:43:42;;;;;;;15.00;12.73;;;;;;;21.66;30.17;93438.94;6151445;28;108991;-55
2023/12/22 08:46:46;;;;;;;14.90;13.50;;;;;;;21.78;30.73;93422.91;6162246;28;109353;-54
2023/12/22 08:49:50;;;;;;;14.13;12.83;;;;;;;21.81;30.63;93420.31;6162051;28;108991;-57
2023/12/22 08:52:53;;;;;;;14.57;12.40;;;;;;;21.84;31.14;93423.44;6161437;28;109261;-55
2023/12/22 08:55:56;;;;;;;13.23;12.03;;;;;;;21.84;30.33;93423.44;6151802;28;110208;-55
2023/12/22 08:58:59;;;;;;;14.50;13.00;;;;;;;21.74;30.68;93425.47;6162416;28;110351;-55
2023/12/22 09:02:05;;;;;;;13.00;11.70;;;;;;;21.61;31.10;93421.34;6162140;28;109121;-55
2023/12/22 09:05:09;;;;;;;14.30;12.90;;;;;;;21.60;30.97;93425.13;6157501;28;109408;-61
2023/12/22 09:08:12;;;;;;;14.20;13.00;;;;;;;21.57;31.14;93436.47;6157111;28;109976;-55
2023/12/22 09:11:17;;;;;;;15.30;13.50;;;;;;;21.55;30.73;93436.03;6162389;28;110257;-55
2023/12/22 09:14:20;;;;;;;14.97;13.57;;;;;;;21.54;31.13;93439.03;6162494;28;110489;-55
2023/12/22 09:17:27;;;;;;;14.97;13.57;;;;;;;21.52;31.12;93447.38;6151891;28;110086;-54
2023/12/22 09:20:30;;;;;;;15.90;14.50;;;;;;;21.52;30.64;93448.13;6162052;28;109242;-56
2023/12/22 09:23:33;;;;;;;15.37;14.07;;;;;;;21.50;31.07;93447.69;6160604;28;109061;-55
2023/12/22 09:26:37;;;;;;;15.93;14.53;;;;;;;21.50;31.07;93468.97;6161966;28;109245;-55
2023/12/22 09:29:40;;;;;;;15.53;13.93;;;;;;;21.50;31.12;93452.22;6151882;28;110531;-55
2023/12/22 09:32:44;;;;;;;15.27;13.87;;;;;;;21.50;31.01;93453.00;6161383;28;110425;-56
2023/12/22 09:35:48;;;;;;;15.63;14.13;;;;;;;21.50;30.94;93452.22;6161373;28;109585;-55
2023/12/22 09:38:51;;;;;;;15.67;14.27;;;;;;;21.50;30.78;93452.22;6159365;28;110275;-55
2023/12/22 09:41:54;;;;;;;16.50;15.00;;;;;;;21.48;31.22;93439.25;6154308;28;110662;-55
2023/12/22 09:45:03;;;;;;;16.73;15.23;;;;;;;21.50;31.04;93437.03;6161968;28;110246;-55
2023/12/22 09:48:10;;;;;;;17.60;15.93;;;;;;;21.49;30.64;93429.38;6161244;28;109230;-54
2023/12/22 09:51:15;;;;;;;17.20;15.70;;;;;;;21.50;31.03;93429.03;6151879;28;109345;-55
2023/12/22 09:54:19;;;;;;;17.80;15.93;;;;;;;21.49;31.02;93430.16;6159935;28;109364;-55
2023/12/22 09:57:24;;;;;;;17.80;16.00;;;;;;;21.50;30.81;93433.59;6161511;28;110199;-59
2023/12/22 10:00:32;;;;;;;15.87;14.47;;;;;;;21.49;30.97;93422.19;6161012;28;109059;-55
2023/12/22 10:03:38;;;;;;;17.33;15.63;;;;;;;21.50;31.24;93420.28;6150594;28;109803;-55
2023/12/22 10:06:42;;;;;;;16.87;15.33;;;;;;;21.49;31.11;93408.88;6161441;28;110095;-55
2023/12/22 10:09:48;;;;;;;15.17;13.50;;;;;;;21.50;31.07;93388.34;6161175;28;110082;-55
2023/12/22 10:12:52;;;;;;;15.80;14.30;;;;;;;21.50;30.77;93402.44;6160815;28;109876;-55
2023/12/22 10:15:56;;;;;;;15.17;13.83;;;;;;;21.50;30.97;93409.66;6151986;28;111220;-55
2023/12/22 10:19:02;;;;;;;15.83;14.33;;;;;;;21.49;31.00;93398.22;6153455;28;109541;-55
2023/12/22 10:22:06;;;;;;;16.17;14.57;;;;;;;21.49;31.33;93390.25;6136631;28;109013;-55
2023/12/22 10:25:09;;;;;;;15.03;13.73;;;;;;;21.49;30.98;93373.50;6143554;28;109685;-58
2023/12/22 10:28:13;;;;;;;16.03;14.63;;;;;;;21.50;30.84;93383.03;6160162;28;109096;-60
2023/12/22 10:31:17;;;;;;;15.30;13.87;;;;;;;21.50;31.36;93381.13;6160462;28;110019;-55
2023/12/22 10:34:22;;;;;;;15.10;13.80;;;;;;;21.51;31.28;93372.06;6160517;28;109283;-55
2023/12/22 10:37:25;;;;;;;14.13;12.83;;;;;;;21.52;31.14;93354.22;6149698;28;109076;-55
2023/12/22 10:40:28;;;;;;;14.17;12.70;;;;;;;21.54;31.26;93359.19;6160425;28;109108;-55
2023/12/22 10:43:32;;;;;;;14.43;13.13;;;;;;;21.56;31.20;93367.59;6160320;28;109280;-55
2023/12/22 10:46:35;;;;;;;14.80;13.40;;;;;;;21.58;30.81;93354.72;6161067;28;110023;-55
2023/12/22 10:49:41;;;;;;;13.97;12.80;;;;;;;21.58;31.00;93341.41;6150260;28;109492;-55
2023/12/22 10:52:50;;;;;;;15.30;13.80;;;;;;;21.59;31.02;93337.63;6160609;28;109117;-56
2023/12/22 10:55:54;;;;;;;14.17;12.87;;;;;;;21.60;30.67;93326.63;6160033;28;110084;-56
2023/12/22 10:58:58;;;;;;;13.80;12.60;;;;;;;21.61;30.98;93330.06;6154733;28;108977;-56
2023/12/22 11:02:03;;;;;;;14.43;13.20;;;;;;;21.63;31.08;93325.16;6155121;28;109337;-56
2023/12/22 11:05:12;;;;;;;15.30;13.83;;;;;;;21.65;30.71;93333.59;6163944;28;109057;-57
2023/12/22 11:08:18;;;;;;;14.17;12.87;;;;;;;21.65;30.72;93322.94;6165057;28;109425;-57
2023/12/22 11:11:29;;;;;;;15.20;13.87;;;;;;;21.66;31.30;93316.50;6130714;28;109259;-57
2023/12/22 11:14:33;;;;;;;14.57;13.27;;;;;;;21.66;30.92;93319.16;6149611;28;109353;-57
2023/12/22 11:17:39;;;;;;;13.93;12.73;;;;;;;21.60;31.13;93286.72;6164293;28;109624;-57
2023/12/22 11:20:46;;;;;;;14.47;13.17;;;;;;;21.69;30.90;93275.91;6164715;28;110023;-57
2023/12/22 11:23:51;;;;;;;14.80;13.53;;;;;;;21.70;30.96;93274.78;6154621;28;112358;-57
2023/12/22 11:26:58;;;;;;;15.17;13.67;;;;;;;21.70;31.07;93280.88;6163884;28;110117;-57
2023/12/22 11:30:02;;;;;;;14.17;12.90;;;;;;;21.69;30.85;93283.88;6164551;28;110077;-57
2023/12/22 11:33:07;;;;;;;14.40;12.93;;;;;;;21.70;30.89;93291.53;6157870;28;109220;-59
2023/12/22 11:36:12;;;;;;;13.37;12.17;;;;;;;21.70;31.05;93294.19;6161511;28;110090;-57
2023/12/22 11:39:16;;;;;;;13.93;12.57;;;;;;;21.62;31.16;93299.69;6164013;28;109798;-57
2023/12/22 11:42:24;;;;;;;14.00;12.77;;;;;;;21.69;30.78;93305.94;6164052;28;109143;-57
2023/12/22 11:45:30;;;;;;;13.80;12.50;;;;;;;21.69;30.90;93310.50;6154167;28;110437;-57
2023/12/22 11:48:34;;;;;;;13.73;12.53;;;;;;;21.66;30.79;93325.25;6164281;28;109820;-57
2023/12/22 11:51:39;;;;;;;13.70;12.60;;;;;;;21.66;31.32;93333.25;6139697;28;110233;-57
2023/12/22 11:54:45;;;;;;;13.50;12.30;;;;;;;21.65;31.20;93333.59;6147739;28;109179;-57
2023/12/22 11:57:48;;;;;;;12.93;11.73;;;;;;;21.64;31.55;93329.38;6152256;28;109432;-57
2023/12/22 12:00:54;;;;;;;13.40;12.20;;;;;;;21.63;31.18;93314.53;6175314;28;108994;-61
2023/12/22 12:03:59;;;;;;;13.20;12.00;;;;;;;21.62;31.49;93308.44;6186178;28;111019;-57
2023/12/22 12:07:44;;;;;;;12.90;11.70;;;;;;;21.62;31.03;93320.97;6157802;28;109125;-57
2023/12/22 12:10:54;;;;;;;13.20;12.00;;;;;;;21.63;31.35;93325.16;6163686;28;110258;-57
2023/12/22 12:14:11;;;;;;;12.80;11.70;;;;;;;21.63;31.08;93338.47;6163746;28;110115;-58
2023/12/22 12:17:18;;;;;;;13.30;12.10;;;;;;;21.63;31.34;93341.16;6162673;28;109388;-57
2023/12/22 12:20:22;;;;;;;11.97;10.97;;;;;;;21.62;31.57;93337.72;6153112;28;110028;-57
2023/12/22 12:23:28;;;;;;;13.13;11.80;;;;;;;21.63;31.41;93341.16;6163134;28;109293;-56
2023/12/22 12:26:33;;;;;;;11.90;10.90;;;;;;;21.64;31.38;93334.69;6163372;28;110235;-56
2023/12/22 12:29:37;;;;;;;13.37;12.07;;;;;;;21.62;31.44;93316.41;6156976;28;109152;-56
2023/12/22 12:32:41;;;;;;;11.77;10.77;;;;;;;21.64;31.23;93294.78;6157216;28;110234;-57
2023/12/22 12:35:47;;;;;;;12.00;10.90;;;;;;;21.63;31.26;93301.22;6163125;28;109385;-57
2023/12/22 12:38:59;;;;;;;10.73;9.77;;;;;;;21.61;31.43;93298.91;6162601;28;109234;-57
2023/12/22 12:42:03;;;;;;;11.10;10.10;;;;;;;21.61;31.41;93280.28;6151657;28;110384;-57
2023/12/22 12:45:08;;;;;;;11.40;10.30;;;;;;;21.57;31.05;93284.75;6162675;28;109114;-57
2023/12/22 12:48:11;;;;;;;11.00;10.00;;;;;;;21.58;31.08;93272.97;6162149;28;109152;-57
2023/12/22 12:51:14;;;;;;;9.87;9.03;;;;;;;21.56;31.54;93269.91;6162567;28;109290;-57
2023/12/22 12:54:20;;;;;;;8.70;8.00;;;;;;;21.58;31.25;93272.22;6151888;28;109436;-57
2023/12/22 12:57:23;;;;;;;9.70;8.80;;;;;;;21.57;31.07;93291.97;6162336;28;109103;-64
2023/12/22 13:00:27;;;;;;;9.17;8.30;;;;;;;21.57;31.09;93291.97;6161875;28;110149;-57
2023/12/22 13:03:30;;;;;;;8.50;7.80;;;;;;;21.55;31.52;93300.28;6158346;28;110115;-57
2023/12/22 13:06:33;;;;;;;9.00;8.20;;;;;;;21.55;31.09;93299.53;6157243;28;110566;-57
2023/12/22 13:09:38;;;;;;;8.53;7.83;;;;;;;21.54;31.13;93313.94;6162027;28;109237;-56
2023/12/22 13:12:42;;;;;;;7.60;7.00;;;;;;;21.53;31.09;93326.47;6162249;28;109415;-57
2023/12/22 13:15:45;;;;;;;8.43;7.47;;;;;;;21.54;31.42;93311.28;6151516;28;109116;-57
2023/12/22 13:18:49;;;;;;;7.53;6.93;;;;;;;21.53;31.23;93291.88;6161790;28;109253;-57
2023/12/22 13:21:53;;;;;;;8.33;7.53;;;;;;;21.54;31.45;93298.75;6162478;28;109505;-57
2023/12/22 13:24:59;;;;;;;7.63;6.93;;;;;;;21.55;31.17;93320.81;6161927;28;109858;-57
2023/12/22 13:28:02;;;;;;;6.37;5.77;;;;;;;21.55;31.30;93334.88;6151405;28;110568;-57
2023/12/22 13:31:11;;;;;;;6.40;5.80;;;;;;;21.54;31.50;93357.31;6160226;28;109271;-57
2023/12/22 13:34:15;;;;;;;6.93;6.30;;;;;;;21.55;31.35;93363.41;6161721;28;109297;-57
2023/12/22 13:37:18;;;;;;;6.70;5.93;;;;;;;21.56;31.28;93367.59;6161979;28;110019;-58
2023/12/22 13:40:23;;;;;;;6.73;6.13;;;;;;;21.61;30.98;93400.06;6151909;28;110428;-57
2023/12/22 13:43:29;;;;;;;6.53;5.93;;;;;;;21.62;31.11;93401.59;6162330;28;110189;-61
2023/12/22 13:46:35;;;;;;;6.53;5.80;;;;;;;21.63;30.72;93407.69;6161757;28;109104;-57
2023/12/22 13:49:38;;;;;;;6.30;5.80;;;;;;;21.65;30.97;93402.78;6151868;28;109059;-57
2023/12/22 13:52:43;;;;;;;5.90;5.40;;;;;;;21.61;31.24;93400.06;6161412;28;109554;-57
2023/12/22 13:55:55;;;;;;;6.13;5.53;;;;;;;21.65;31.01;93410.78;6161526;28;109057;-56
2023/12/22 13:58:58;;;;;;;7.30;6.60;;;;;;;21.66;31.11;93407.00;6161896;28;110087;-57
2023/12/22 14:02:01;;;;;;;6.27;5.70;;;;;;;21.65;31.24;93402.78;6150535;28;110003;-57